createdAt,value
2022-12-04T00:35:14.855Z,11.86
2022-12-04T01:37:27.813Z,10.94
2022-12-04T01:40:23.014Z,10.93
2022-12-04T01:47:17.674Z,10.88
2022-12-04T01:54:42.123Z,10.77
2022-12-04T02:16:08.350Z,10.56
2022-12-04T02:19:20.128Z,10.51
2022-12-04T02:25:33.259Z,10.44
2022-12-04T02:35:28.326Z,10.32
2022-12-04T02:48:07.792Z,10.24
2022-12-04T02:57:53.546Z,10.65
2022-12-04T03:01:08.272Z,10.66
2022-12-04T03:08:10.511Z,10.62
2022-12-04T03:18:33.726Z,10.77
2022-12-04T03:25:32.346Z,10.86
2022-12-04T03:32:39.985Z,10.94
2022-12-04T03:39:12.890Z,10.90
2022-12-04T03:42:41.309Z,10.91
2022-12-04T03:46:42.507Z,10.94
2022-12-04T04:12:16.648Z,10.89
2022-12-04T04:19:29.459Z,10.77
2022-12-04T04:30:34.712Z,10.72
2022-12-04T04:33:47.147Z,10.72
2022-12-04T04:40:36.285Z,10.78
2022-12-04T04:43:36.980Z,10.80
2022-12-04T05:03:26.609Z,11.05
2022-12-04T05:06:11.278Z,11.02
2022-12-04T05:09:14.259Z,11.09
2022-12-04T05:41:25.403Z,11.12
2022-12-04T05:44:31.812Z,11.13
2022-12-04T06:08:40.243Z,11.15
2022-12-04T06:11:49.871Z,11.17
2022-12-04T06:14:39.261Z,11.13
2022-12-04T06:18:01.159Z,11.14
2022-12-04T06:23:26.416Z,11.10
2022-12-04T06:26:17.475Z,11.07
2022-12-04T06:44:25.340Z,10.93
2022-12-04T06:51:04.066Z,10.93
2022-12-04T07:00:18.027Z,10.94
2022-12-04T07:03:21.964Z,10.91
2022-12-04T07:20:01.449Z,10.85
2022-12-04T07:27:00.446Z,10.94
2022-12-04T07:29:32.828Z,10.94
2022-12-04T07:32:19.439Z,10.91
2022-12-04T07:34:52.226Z,10.92
2022-12-04T07:38:00.955Z,10.86
2022-12-04T07:40:38.732Z,10.88
2022-12-04T07:43:33.103Z,10.86
2022-12-04T07:49:33.468Z,10.78
2022-12-04T08:06:23.707Z,10.68
2022-12-04T08:09:18.420Z,10.60
2022-12-04T08:15:10.648Z,10.43
2022-12-04T08:27:05.474Z,10.11
2022-12-04T08:32:59.371Z,9.99
2022-12-04T08:38:46.528Z,9.94
2022-12-04T08:41:27.162Z,9.90
2022-12-04T08:44:05.345Z,9.94
2022-12-04T08:46:47.380Z,9.90
2022-12-04T08:52:49.973Z,10.03
2022-12-04T08:55:24.797Z,10.10
2022-12-04T09:01:15.135Z,10.23
2022-12-04T09:04:06.170Z,10.32
2022-12-04T09:07:38.227Z,10.38
2022-12-04T09:14:11.946Z,10.54
2022-12-04T09:17:02.446Z,10.52
2022-12-04T09:23:03.805Z,10.63
2022-12-04T09:29:42.910Z,10.70
2022-12-04T09:32:57.445Z,10.73
2022-12-04T09:35:55.211Z,10.77
2022-12-04T09:42:48.574Z,10.87
2022-12-04T09:48:50.667Z,10.77
2022-12-04T10:15:40.844Z,11.30
2022-12-04T10:18:53.849Z,11.40
2022-12-04T10:21:44.521Z,11.49
2022-12-04T10:24:21.307Z,11.57
2022-12-04T10:27:01.712Z,11.59
2022-12-04T10:29:40.658Z,11.68
2022-12-04T10:32:23.225Z,11.71
2022-12-04T10:35:33.153Z,11.77
2022-12-04T10:38:09.572Z,11.78
2022-12-04T10:40:56.808Z,11.79
2022-12-04T10:46:28.620Z,11.82
2022-12-04T10:49:16.870Z,11.85
2022-12-04T10:52:40.237Z,11.86
2022-12-04T10:55:15.231Z,11.89
2022-12-04T10:58:13.722Z,11.92
2022-12-04T11:00:51.464Z,11.89
2022-12-04T11:03:50.647Z,11.84
2022-12-04T11:06:34.437Z,11.84
2022-12-04T11:09:41.121Z,11.84
2022-12-04T11:12:16.658Z,11.88
2022-12-04T11:41:54.600Z,11.87
2022-12-04T13:17:43.180Z,12.05
2022-12-04T13:20:19.712Z,12.03
2022-12-04T13:22:55.755Z,12.04
2022-12-04T13:25:32.634Z,12.10
2022-12-04T13:28:28.081Z,12.15
2022-12-04T13:30:58.573Z,12.12
2022-12-04T13:33:38.736Z,12.15
2022-12-04T13:36:32.422Z,12.15
2022-12-04T13:39:20.970Z,12.11
2022-12-04T13:44:42.012Z,11.97
2022-12-04T13:47:13.309Z,11.93
2022-12-04T13:49:44.521Z,11.89
2022-12-04T13:52:23.910Z,11.86
2022-12-04T13:54:59.058Z,11.81
2022-12-04T13:57:28.338Z,11.78
2022-12-04T14:00:04.333Z,11.73
2022-12-04T14:02:54.917Z,11.77
2022-12-04T14:05:29.395Z,11.75
2022-12-04T14:08:16.069Z,11.76
2022-12-04T14:10:44.602Z,11.75
2022-12-04T14:13:19.617Z,11.71
2022-12-04T14:15:54.499Z,11.68
2022-12-04T14:18:28.892Z,11.63
2022-12-04T14:20:59.672Z,11.57
2022-12-04T14:23:37.052Z,11.53
2022-12-04T14:26:05.961Z,11.51
2022-12-04T14:28:45.945Z,11.53
2022-12-04T14:31:25.711Z,11.52
2022-12-04T14:33:54.880Z,11.51
2022-12-04T14:36:26.427Z,11.49
2022-12-04T14:39:07.830Z,11.48
2022-12-04T14:41:41.084Z,11.44
2022-12-04T14:44:20.525Z,11.43
2022-12-04T14:46:50.500Z,11.41
2022-12-04T14:49:49.026Z,11.43
2022-12-04T14:52:19.926Z,11.44
2022-12-04T14:55:18.351Z,11.46
2022-12-04T14:57:59.649Z,11.46
2022-12-04T15:03:16.582Z,11.47
2022-12-04T15:05:49.300Z,11.44
2022-12-04T15:08:20.461Z,11.44
2022-12-04T15:11:09.934Z,11.43
2022-12-04T15:13:49.065Z,11.36
2022-12-04T15:16:20.907Z,11.36
2022-12-04T15:18:57.321Z,11.34
2022-12-04T15:21:28.051Z,11.34
2022-12-04T15:24:00.037Z,11.35
2022-12-04T15:26:29.714Z,11.32
2022-12-04T15:29:00.794Z,11.29
2022-12-04T15:31:32.838Z,11.25
2022-12-04T15:34:13.476Z,11.23
2022-12-04T15:36:46.988Z,11.17
2022-12-04T15:39:16.809Z,11.13
2022-12-04T15:41:49.189Z,11.07
2022-12-04T15:44:28.831Z,11.03
2022-12-04T15:46:59.962Z,10.94
2022-12-04T15:49:29.673Z,10.93
2022-12-04T15:52:07.159Z,10.92
2022-12-04T15:54:36.601Z,10.89
2022-12-04T15:57:08.405Z,10.87
2022-12-04T15:59:42.993Z,10.90
2022-12-04T16:02:26.806Z,10.90
2022-12-04T16:04:55.080Z,10.89
2022-12-04T16:07:24.866Z,10.88
2022-12-04T16:10:01.067Z,10.93
2022-12-04T16:12:32.983Z,10.94
2022-12-04T16:15:02.521Z,10.96
2022-12-04T16:17:39.170Z,10.93
2022-12-04T16:20:10.399Z,10.88
2022-12-04T16:22:39.909Z,10.87
2022-12-04T16:25:12.425Z,10.87
2022-12-04T16:28:01.674Z,10.85
2022-12-04T16:30:41.721Z,10.84
2022-12-04T16:33:20.049Z,10.84
2022-12-04T16:35:49.013Z,10.83
2022-12-04T16:38:18.016Z,10.82
2022-12-04T16:40:46.868Z,10.83
2022-12-04T16:43:16.433Z,10.83
2022-12-04T16:45:48.400Z,10.81
2022-12-04T16:48:16.540Z,10.82
2022-12-04T16:50:45.235Z,10.80
2022-12-04T16:53:16.175Z,10.80
2022-12-04T16:55:45.991Z,10.81
2022-12-04T16:58:14.295Z,10.83
2022-12-04T17:00:43.785Z,10.86
2022-12-04T17:03:19.334Z,10.85
2022-12-04T17:05:48.559Z,10.89
2022-12-04T17:08:18.453Z,10.91
2022-12-04T17:10:48.194Z,10.96
2022-12-04T17:13:18.622Z,10.96
2022-12-04T17:15:47.228Z,10.95
2022-12-04T17:18:21.008Z,10.99
2022-12-04T17:20:53.044Z,11.02
2022-12-04T17:23:21.149Z,11.05
2022-12-04T17:25:49.518Z,11.05
2022-12-04T17:28:20.081Z,11.05
2022-12-04T17:30:48.489Z,10.99
2022-12-04T17:33:18.899Z,11.09
2022-12-04T17:35:47.904Z,11.06
2022-12-04T17:38:15.961Z,11.05
2022-12-04T17:40:45.435Z,11.07
2022-12-04T17:43:18.846Z,11.01
2022-12-04T17:45:50.493Z,11.09
2022-12-04T17:48:19.875Z,11.08
2022-12-04T17:50:48.207Z,11.09
2022-12-04T17:53:17.486Z,11.11
2022-12-04T17:55:50.907Z,11.09
2022-12-04T17:58:19.368Z,11.12
2022-12-04T18:00:47.765Z,11.12
2022-12-04T18:03:16.203Z,11.13
2022-12-04T18:05:47.465Z,11.11
2022-12-04T18:08:15.910Z,11.14
2022-12-04T18:10:44.069Z,11.14
2022-12-04T18:13:12.040Z,11.13
2022-12-04T18:15:42.633Z,11.14
2022-12-04T18:18:13.276Z,11.14
2022-12-04T18:20:42.407Z,11.14
2022-12-04T18:23:14.453Z,11.16
2022-12-04T18:25:45.427Z,11.18
2022-12-04T18:28:14.090Z,11.18
2022-12-04T18:30:42.856Z,11.19
2022-12-04T18:33:14.855Z,11.20
2022-12-04T18:35:55.735Z,11.19
2022-12-04T18:38:25.746Z,11.17
2022-12-04T18:40:54.592Z,11.20
2022-12-04T18:43:22.750Z,11.20
2022-12-04T18:46:01.407Z,11.19
2022-12-04T18:48:34.356Z,11.16
2022-12-04T18:51:04.326Z,11.22
2022-12-04T18:53:33.780Z,11.22
2022-12-04T18:56:03.947Z,11.21
2022-12-04T18:58:33.459Z,11.19
2022-12-04T19:01:06.419Z,11.20
2022-12-04T19:03:35.032Z,11.21
2022-12-04T19:06:03.420Z,11.22
2022-12-04T19:08:38.773Z,11.21
2022-12-04T19:11:13.380Z,11.25
2022-12-04T19:13:41.592Z,11.22
2022-12-04T19:16:13.995Z,11.25
2022-12-04T19:18:42.816Z,11.23
2022-12-04T19:21:11.712Z,11.26
2022-12-04T19:23:46.615Z,11.27
2022-12-04T19:26:14.620Z,11.28
2022-12-04T19:28:47.363Z,11.28
2022-12-04T19:31:17.043Z,11.30
2022-12-04T19:33:46.154Z,11.29
2022-12-04T19:36:14.626Z,11.31
2022-12-04T19:38:44.216Z,11.31
2022-12-04T19:41:13.268Z,11.30
2022-12-04T19:43:41.880Z,11.31
2022-12-04T19:46:12.085Z,11.31
2022-12-04T19:48:41.243Z,11.30
2022-12-04T19:51:11.709Z,11.31
2022-12-04T19:53:41.350Z,11.33
2022-12-04T19:56:12.381Z,11.30
2022-12-04T19:58:42.955Z,11.29
2022-12-04T20:01:13.262Z,11.27
2022-12-04T20:03:41.936Z,11.27
2022-12-04T20:06:11.320Z,11.30
2022-12-04T20:08:39.546Z,11.28
2022-12-04T20:11:10.775Z,11.25
2022-12-04T20:13:40.282Z,11.24
2022-12-04T20:16:10.909Z,11.24
2022-12-04T20:18:39.670Z,11.25
2022-12-04T20:21:11.352Z,11.25
2022-12-04T20:23:40.190Z,11.23
2022-12-04T20:26:09.958Z,11.19
2022-12-04T20:28:39.115Z,11.24
2022-12-04T20:31:14.796Z,11.25
2022-12-04T20:33:43.325Z,11.27
2022-12-04T20:36:12.506Z,11.30
2022-12-04T20:38:40.694Z,11.31
2022-12-04T20:41:10.732Z,11.33
2022-12-04T20:43:39.015Z,11.33
2022-12-04T20:46:15.860Z,11.35
2022-12-04T20:48:48.361Z,11.35
2022-12-04T20:51:20.081Z,11.33
2022-12-04T20:53:49.955Z,11.35
2022-12-04T20:56:21.215Z,11.37
2022-12-04T20:58:50.432Z,11.35
2022-12-04T21:01:21.410Z,11.39
2022-12-04T21:03:49.665Z,11.35
2022-12-04T21:06:21.710Z,11.39
2022-12-04T21:09:00.787Z,11.35
2022-12-04T21:11:30.290Z,11.35
2022-12-04T21:14:22.221Z,11.33
2022-12-04T21:16:53.313Z,11.30
2022-12-04T21:19:24.257Z,11.30
2022-12-04T21:21:52.991Z,11.31
2022-12-04T21:24:34.119Z,11.32
2022-12-04T21:27:06.166Z,11.30
2022-12-04T21:29:36.816Z,11.32
2022-12-04T21:32:08.456Z,11.34
2022-12-04T21:34:36.700Z,11.31
2022-12-04T21:37:09.269Z,11.36
2022-12-04T21:39:39.999Z,11.30
2022-12-04T21:42:26.932Z,11.34
2022-12-04T21:44:55.289Z,11.26
2022-12-04T21:47:31.138Z,11.34
2022-12-04T21:50:05.683Z,11.34
2022-12-04T21:52:53.312Z,11.34
2022-12-04T21:55:40.479Z,11.35
2022-12-04T21:58:24.517Z,11.34
2022-12-04T22:01:16.867Z,11.34
2022-12-04T22:03:51.326Z,11.36
2022-12-04T22:06:21.855Z,11.37
2022-12-04T22:08:50.430Z,11.34
2022-12-04T22:11:19.469Z,11.35
2022-12-04T22:14:34.039Z,11.31
2022-12-04T22:17:09.701Z,11.32
2022-12-04T22:20:15.622Z,11.31
2022-12-04T22:25:50.794Z,11.27
2022-12-04T22:28:21.032Z,11.26
2022-12-04T22:30:50.311Z,11.26
2022-12-04T22:33:48.554Z,11.29
2022-12-04T22:36:20.868Z,11.31
2022-12-04T22:39:10.710Z,11.27
2022-12-04T22:41:41.322Z,11.26
2022-12-04T22:44:15.595Z,11.30
2022-12-04T22:46:59.015Z,11.26
2022-12-04T22:49:33.106Z,11.26
2022-12-04T22:52:03.036Z,11.25
2022-12-04T22:54:33.315Z,11.22
2022-12-04T22:59:46.714Z,11.27
2022-12-04T23:02:25.690Z,11.29
2022-12-04T23:04:57.253Z,11.26
2022-12-04T23:07:27.317Z,11.25
2022-12-04T23:10:09.471Z,11.25
2022-12-04T23:12:45.387Z,11.26
2022-12-04T23:15:13.569Z,11.27
2022-12-04T23:18:08.535Z,11.28
2022-12-04T23:20:58.298Z,11.27
2022-12-04T23:23:34.374Z,11.27
2022-12-04T23:26:04.916Z,11.26
2022-12-04T23:28:46.994Z,11.26
2022-12-04T23:31:19.621Z,11.18
2022-12-04T23:33:49.380Z,11.20
2022-12-04T23:36:18.187Z,11.20
2022-12-04T23:38:47.239Z,11.18
2022-12-04T23:41:23.982Z,11.19
2022-12-04T23:44:23.885Z,11.21
2022-12-04T23:46:54.500Z,11.19
2022-12-04T23:49:29.276Z,11.18
2022-12-04T23:52:07.489Z,11.17
2022-12-04T23:54:38.101Z,11.14
2022-12-04T23:57:37.678Z,11.14
